createdAt,value
2022-09-29T00:00:31.769Z,4.25
2022-09-29T00:02:58.365Z,4.10
2022-09-29T00:05:25.007Z,3.90
2022-09-29T00:07:51.542Z,4.22
2022-09-29T00:10:18.409Z,3.60
2022-09-29T00:12:45.054Z,3.97
2022-09-29T00:15:12.027Z,3.90
2022-09-29T00:17:38.616Z,4.45
2022-09-29T00:20:05.771Z,4.13
2022-09-29T00:22:32.371Z,3.80
2022-09-29T00:24:59.048Z,3.72
2022-09-29T00:27:25.617Z,3.78
2022-09-29T00:29:52.211Z,3.40
2022-09-29T00:32:18.924Z,3.15
2022-09-29T00:34:45.552Z,3.33
2022-09-29T00:37:12.077Z,4.00
2022-09-29T00:39:38.851Z,4.50
2022-09-29T00:42:05.496Z,3.67
2022-09-29T00:45:00.463Z,3.70
2022-09-29T00:47:28.717Z,3.85
2022-09-29T00:50:47.713Z,3.17
2022-09-29T00:53:21.417Z,4.07
2022-09-29T00:55:58.135Z,3.70
2022-09-29T00:58:33.179Z,3.50
2022-09-29T01:03:43.342Z,3.88
2022-09-29T01:06:19.340Z,3.85
2022-09-29T01:08:58.063Z,4.60
2022-09-29T01:11:25.222Z,5.13
2022-09-29T01:13:53.529Z,4.30
2022-09-29T01:16:20.384Z,3.08
2022-09-29T01:18:47.921Z,4.13
2022-09-29T01:21:33.694Z,3.70
2022-09-29T01:24:43.699Z,3.92
2022-09-29T01:27:20.993Z,2.80
2022-09-29T01:30:20.146Z,4.07
2022-09-29T01:33:00.908Z,3.58
2022-09-29T01:35:37.221Z,4.03
2022-09-29T01:38:29.284Z,3.53
2022-09-29T01:41:14.359Z,3.88
2022-09-29T01:43:59.127Z,3.40
2022-09-29T01:46:36.467Z,4.07
2022-09-29T01:49:05.375Z,3.83
2022-09-29T01:51:52.628Z,3.47
2022-09-29T01:54:25.720Z,3.75
2022-09-29T01:57:08.456Z,3.80
2022-09-29T02:00:05.102Z,3.60
2022-09-29T02:02:52.302Z,3.28
2022-09-29T02:05:32.850Z,3.10
2022-09-29T02:08:08.235Z,4.35
2022-09-29T02:10:41.220Z,3.42
2022-09-29T02:13:10.609Z,3.30
2022-09-29T02:15:43.699Z,3.42
2022-09-29T02:18:21.958Z,2.50
2022-09-29T02:20:50.465Z,3.45
2022-09-29T02:23:17.519Z,3.90
2022-09-29T02:25:45.741Z,3.47
2022-09-29T02:28:13.528Z,3.15
2022-09-29T02:30:40.153Z,2.53
2022-09-29T02:33:06.849Z,3.72
2022-09-29T02:35:49.067Z,3.35
2022-09-29T02:38:27.677Z,2.08
2022-09-29T02:41:05.241Z,2.40
2022-09-29T02:44:01.925Z,2.92
2022-09-29T02:46:44.979Z,2.55
2022-09-29T02:49:43.857Z,2.40
2022-09-29T02:52:46.307Z,2.20
2022-09-29T02:55:37.820Z,2.78
2022-09-29T02:58:15.504Z,1.83
2022-09-29T03:00:44.164Z,2.08
2022-09-29T03:03:11.635Z,2.38
2022-09-29T03:05:38.794Z,2.42
2022-09-29T03:08:05.722Z,2.58
2022-09-29T03:10:32.368Z,3.05
2022-09-29T03:12:59.065Z,2.58
2022-09-29T03:15:25.929Z,3.65
2022-09-29T03:17:56.938Z,2.53
2022-09-29T03:20:24.048Z,3.38
2022-09-29T03:22:52.092Z,2.10
2022-09-29T03:25:19.047Z,2.80
2022-09-29T03:27:46.372Z,3.17
2022-09-29T03:30:13.494Z,2.95
2022-09-29T03:32:40.117Z,2.70
2022-09-29T03:35:07.443Z,2.92
2022-09-29T03:37:34.114Z,3.08
2022-09-29T03:40:01.099Z,3.30
2022-09-29T03:42:28.484Z,2.65
2022-09-29T03:44:55.335Z,2.97
2022-09-29T03:47:22.153Z,2.58
2022-09-29T03:49:48.898Z,3.17
2022-09-29T03:52:15.753Z,2.75
2022-09-29T03:54:42.467Z,3.30
2022-09-29T03:57:09.272Z,2.45
2022-09-29T03:59:35.913Z,3.30
2022-09-29T04:02:03.094Z,3.25
2022-09-29T04:04:29.812Z,3.42
2022-09-29T04:06:56.486Z,2.72
2022-09-29T04:09:23.317Z,2.85
2022-09-29T04:11:50.197Z,4.05
2022-09-29T04:14:17.190Z,3.42
2022-09-29T04:16:43.856Z,2.63
2022-09-29T04:19:10.514Z,3.60
2022-09-29T04:21:37.274Z,3.35
2022-09-29T04:24:05.001Z,3.00
2022-09-29T04:26:31.705Z,3.58
2022-09-29T04:28:58.647Z,3.45
2022-09-29T04:31:25.467Z,3.95
2022-09-29T04:33:52.416Z,3.30
2022-09-29T04:36:19.064Z,3.10
2022-09-29T04:38:45.726Z,3.03
2022-09-29T04:41:12.342Z,3.28
2022-09-29T04:43:39.235Z,3.08
2022-09-29T04:46:08.170Z,3.67
2022-09-29T04:48:36.276Z,3.13
2022-09-29T04:51:04.611Z,2.63
2022-09-29T04:53:32.005Z,2.60
2022-09-29T04:55:58.871Z,3.25
2022-09-29T04:58:25.602Z,3.00
2022-09-29T05:00:52.262Z,3.00
2022-09-29T05:03:18.968Z,3.10
2022-09-29T05:05:45.684Z,3.05
2022-09-29T05:08:12.822Z,3.15
2022-09-29T05:10:39.507Z,3.10
2022-09-29T05:13:06.226Z,3.78
2022-09-29T05:15:32.884Z,3.58
2022-09-29T05:18:03.013Z,2.67
2022-09-29T05:20:38.365Z,2.75
2022-09-29T05:23:10.203Z,2.90
2022-09-29T05:25:38.079Z,3.15
2022-09-29T05:28:05.203Z,3.47
2022-09-29T05:30:32.300Z,3.33
2022-09-29T05:32:59.345Z,2.70
2022-09-29T05:35:26.125Z,2.92
2022-09-29T05:37:52.899Z,2.70
2022-09-29T06:02:02.483Z,3.65
2022-09-29T06:04:31.412Z,3.22
2022-09-29T06:06:57.902Z,2.97
2022-09-29T06:09:24.478Z,3.58
2022-09-29T06:11:51.012Z,3.95
2022-09-29T06:14:17.515Z,3.30
2022-09-29T06:16:44.548Z,3.35
2022-09-29T06:19:11.145Z,3.45
2022-09-29T06:21:39.655Z,3.53
2022-09-29T06:24:07.250Z,3.78
2022-09-29T06:26:34.377Z,3.65
2022-09-29T06:29:00.981Z,3.47
2022-09-29T06:31:29.267Z,3.65
2022-09-29T06:34:01.189Z,3.20
2022-09-29T06:36:53.897Z,3.38
2022-09-29T06:39:21.264Z,3.15
2022-09-29T06:41:56.024Z,3.47
2022-09-29T06:44:24.704Z,2.55
2022-09-29T06:46:51.522Z,4.03
2022-09-29T06:49:18.971Z,4.55
2022-09-29T06:51:46.795Z,5.32
2022-09-29T06:54:15.792Z,4.30
2022-09-29T06:56:42.734Z,4.38
2022-09-29T06:59:09.340Z,3.95
2022-09-29T07:01:35.930Z,3.92
2022-09-29T07:04:02.788Z,4.55
2022-09-29T07:06:30.211Z,5.18
2022-09-29T07:08:58.626Z,4.30
2022-09-29T07:11:26.308Z,4.75
2022-09-29T07:13:54.837Z,5.25
2022-09-29T07:16:25.620Z,5.25
2022-09-29T07:18:52.538Z,5.90
2022-09-29T07:21:21.825Z,4.63
2022-09-29T07:23:48.525Z,4.75
2022-09-29T07:26:16.551Z,4.60
2022-09-29T07:28:45.618Z,4.22
2022-09-29T07:31:18.641Z,5.05
2022-09-29T07:33:46.792Z,4.85
2022-09-29T07:36:15.129Z,4.22
2022-09-29T07:38:42.465Z,6.03
2022-09-29T07:41:11.432Z,5.32
2022-09-29T07:43:38.388Z,4.43
2022-09-29T07:46:05.665Z,4.50
2022-09-29T07:48:33.668Z,5.30
2022-09-29T07:51:04.524Z,4.57
2022-09-29T07:53:32.257Z,4.97
2022-09-29T07:56:13.916Z,4.38
2022-09-29T07:58:42.090Z,4.90
2022-09-29T08:01:12.588Z,5.57
2022-09-29T08:03:46.489Z,4.18
2022-09-29T08:06:13.081Z,5.15
2022-09-29T08:08:41.117Z,4.47
2022-09-29T08:11:17.441Z,4.63
2022-09-29T08:13:53.089Z,4.68
2022-09-29T08:16:20.807Z,6.32
2022-09-29T08:18:47.357Z,4.80
2022-09-29T08:21:15.340Z,5.55
2022-09-29T08:23:43.452Z,4.47
2022-09-29T08:26:14.131Z,5.00
2022-09-29T08:28:45.264Z,5.82
2022-09-29T08:31:30.199Z,4.82
2022-09-29T08:34:01.636Z,4.25
2022-09-29T08:36:28.151Z,5.28
2022-09-29T08:38:56.520Z,4.95
2022-09-29T08:41:44.644Z,5.53
2022-09-29T08:44:37.711Z,5.03
2022-09-29T08:47:42.995Z,5.10
2022-09-29T08:50:37.118Z,6.10
2022-09-29T08:53:24.899Z,5.60
2022-09-29T08:56:09.217Z,5.15
2022-09-29T08:58:38.450Z,4.97
2022-09-29T09:01:13.961Z,5.75
2022-09-29T09:03:56.245Z,5.22
2022-09-29T09:06:46.472Z,4.90
2022-09-29T09:09:13.075Z,4.88
2022-09-29T09:12:03.537Z,6.05
2022-09-29T09:14:55.346Z,5.25
2022-09-29T09:17:36.131Z,6.60
2022-09-29T09:20:16.205Z,6.32
2022-09-29T09:23:20.495Z,5.40
2022-09-29T09:25:54.858Z,5.60
2022-09-29T09:28:30.468Z,6.75
2022-09-29T09:31:13.320Z,6.07
2022-09-29T09:34:01.805Z,6.10
2022-09-29T09:36:36.709Z,6.15
2022-09-29T09:39:14.220Z,6.20
2022-09-29T09:41:44.549Z,5.80
2022-09-29T09:44:20.091Z,6.03
2022-09-29T09:46:52.283Z,5.28
2022-09-29T09:49:25.479Z,7.25
2022-09-29T09:51:58.238Z,5.97
2022-09-29T09:54:38.807Z,5.50
2022-09-29T09:57:33.791Z,5.10
2022-09-29T10:00:42.789Z,5.53
2022-09-29T10:03:12.625Z,5.53
2022-09-29T10:05:45.502Z,5.38
2022-09-29T10:08:39.670Z,4.68
2022-09-29T10:11:15.884Z,4.65
2022-09-29T10:13:43.108Z,4.93
2022-09-29T10:16:22.075Z,4.43
2022-09-29T10:18:53.529Z,4.50
2022-09-29T10:21:23.192Z,5.20
2022-09-29T10:23:57.171Z,5.22
2022-09-29T10:26:26.584Z,3.90
2022-09-29T10:29:02.211Z,5.25
2022-09-29T10:31:31.474Z,4.72
2022-09-29T10:34:16.283Z,4.75
2022-09-29T10:36:53.083Z,4.35
2022-09-29T10:39:46.833Z,4.72
2022-09-29T10:42:20.585Z,4.10
2022-09-29T10:45:01.168Z,4.05
2022-09-29T10:47:28.352Z,3.92
2022-09-29T10:50:18.050Z,4.60
2022-09-29T10:52:55.656Z,4.88
2022-09-29T10:55:29.068Z,5.15
2022-09-29T10:58:37.480Z,4.25
2022-09-29T11:01:10.952Z,5.30
2022-09-29T11:03:50.046Z,4.72
2022-09-29T11:06:16.984Z,4.85
2022-09-29T11:08:58.124Z,5.15
2022-09-29T11:11:31.788Z,4.53
2022-09-29T11:13:59.372Z,4.50
2022-09-29T11:16:34.547Z,5.40
2022-09-29T11:19:09.434Z,4.60
2022-09-29T11:21:52.643Z,4.68
2022-09-29T11:24:50.590Z,5.00
2022-09-29T11:27:32.872Z,5.72
2022-09-29T11:30:03.578Z,4.78
2022-09-29T11:32:55.077Z,4.00
2022-09-29T11:35:38.957Z,4.22
2022-09-29T11:41:45.967Z,4.28
2022-09-29T11:47:41.324Z,4.30
2022-09-29T11:50:40.628Z,3.53
2022-09-29T11:53:15.808Z,4.07
2022-09-29T11:56:22.806Z,3.90
2022-09-29T11:59:24.732Z,3.47
2022-09-29T12:02:22.723Z,3.85
2022-09-29T12:05:17.997Z,2.88
2022-09-29T12:08:04.781Z,3.60
2022-09-29T12:10:50.084Z,3.38
2022-09-29T12:13:32.502Z,2.97
2022-09-29T12:16:20.382Z,3.67
2022-09-29T12:19:01.789Z,3.47
2022-09-29T12:21:39.020Z,3.65
2022-09-29T12:24:11.167Z,3.78
2022-09-29T12:26:38.952Z,3.38
2022-09-29T12:29:19.490Z,3.30
2022-09-29T12:31:50.247Z,3.28
2022-09-29T12:34:42.829Z,3.80
2022-09-29T12:37:23.752Z,4.10
2022-09-29T12:39:54.242Z,2.95
2022-09-29T12:42:44.868Z,3.22
2022-09-29T12:45:23.553Z,4.13
2022-09-29T12:48:02.195Z,2.78
2022-09-29T12:50:42.452Z,3.33
2022-09-29T12:53:20.509Z,3.75
2022-09-29T12:55:53.437Z,2.97
2022-09-29T12:58:31.029Z,3.72
2022-09-29T13:01:22.383Z,3.60
2022-09-29T13:04:35.656Z,4.55
2022-09-29T13:07:29.887Z,3.47
2022-09-29T13:10:34.040Z,3.42
2022-09-29T13:13:37.638Z,3.92
2022-09-29T13:16:38.687Z,3.40
2022-09-29T13:19:56.341Z,3.88
2022-09-29T13:23:01.254Z,3.67
2022-09-29T13:25:36.992Z,4.28
2022-09-29T13:28:11.831Z,4.05
2022-09-29T13:30:38.969Z,3.85
2022-09-29T13:33:25.497Z,3.90
2022-09-29T13:35:53.616Z,3.97
2022-09-29T13:38:24.147Z,4.18
2022-09-29T13:41:11.216Z,4.90
2022-09-29T13:43:40.473Z,4.45
2022-09-29T13:46:32.307Z,4.28
2022-09-29T13:49:13.940Z,4.57
2022-09-29T13:52:00.485Z,5.43
2022-09-29T13:54:32.830Z,5.22
2022-09-29T13:57:01.113Z,5.32
2022-09-29T13:59:31.102Z,4.78
2022-09-29T14:01:58.598Z,5.57
2022-09-29T14:04:38.132Z,6.50
2022-09-29T14:07:06.683Z,5.57
2022-09-29T14:09:37.034Z,6.88
2022-09-29T14:12:09.792Z,5.55
2022-09-29T14:14:41.544Z,5.10
2022-09-29T14:17:26.949Z,5.32
2022-09-29T14:20:07.549Z,5.90
2022-09-29T14:22:37.191Z,4.78
2022-09-29T14:25:10.371Z,6.03
2022-09-29T14:27:49.175Z,7.00
2022-09-29T14:30:19.969Z,5.90
2022-09-29T14:33:06.668Z,5.88
2022-09-29T14:35:35.844Z,5.90
2022-09-29T14:38:25.280Z,5.47
2022-09-29T14:41:00.145Z,5.85
2022-09-29T14:43:55.264Z,4.45
2022-09-29T14:47:08.795Z,5.65
2022-09-29T14:50:19.783Z,6.43
2022-09-29T14:52:55.049Z,5.75
2022-09-29T14:55:30.353Z,5.03
2022-09-29T14:58:03.917Z,5.13
2022-09-29T15:00:48.778Z,6.05
2022-09-29T15:03:27.952Z,5.47
2022-09-29T15:06:18.669Z,5.28
2022-09-29T15:09:01.824Z,5.50
2022-09-29T15:11:45.188Z,4.80
2022-09-29T15:14:20.929Z,5.57
2022-09-29T15:17:10.336Z,5.20
2022-09-29T15:19:55.609Z,6.00
2022-09-29T15:22:41.607Z,6.32
2022-09-29T15:25:29.312Z,5.05
2022-09-29T15:28:02.961Z,4.93
2022-09-29T15:30:30.908Z,4.97
2022-09-29T15:33:19.444Z,5.38
2022-09-29T15:35:51.031Z,4.82
2022-09-29T15:38:32.280Z,5.55
2022-09-29T15:41:04.323Z,5.00
2022-09-29T15:43:54.115Z,4.80
2022-09-29T15:46:36.580Z,5.47
2022-09-29T15:49:12.372Z,4.95
2022-09-29T15:51:40.549Z,4.85
2022-09-29T15:54:10.668Z,5.53
2022-09-29T15:57:02.681Z,4.80
2022-09-29T15:59:42.615Z,5.35
2022-09-29T16:05:15.977Z,5.10
2022-09-29T16:07:58.154Z,5.70
2022-09-29T16:10:29.709Z,5.28
2022-09-29T16:13:08.464Z,6.68
2022-09-29T16:15:42.427Z,6.45
2022-09-29T16:18:19.319Z,5.68
2022-09-29T16:20:46.861Z,5.35
2022-09-29T16:23:26.983Z,6.30
2022-09-29T16:26:20.262Z,6.55
2022-09-29T16:29:07.722Z,4.57
2022-09-29T16:31:35.725Z,5.10
2022-09-29T16:34:02.619Z,4.75
2022-09-29T16:36:36.592Z,5.15
2022-09-29T16:39:05.096Z,5.07
2022-09-29T16:41:37.913Z,4.55
2022-09-29T16:44:23.201Z,4.35
2022-09-29T16:46:52.203Z,5.72
2022-09-29T16:49:22.784Z,5.18
2022-09-29T16:51:50.662Z,6.32
2022-09-29T16:54:23.412Z,5.20
2022-09-29T16:57:08.716Z,4.97
2022-09-29T16:59:36.622Z,4.03
2022-09-29T17:02:09.703Z,4.88
2022-09-29T17:04:36.310Z,5.38
2022-09-29T17:07:03.253Z,4.65
2022-09-29T17:09:30.315Z,5.55
2022-09-29T17:11:57.041Z,3.72
2022-09-29T17:14:25.061Z,3.97
2022-09-29T17:16:52.332Z,3.33
2022-09-29T17:19:19.491Z,4.20
2022-09-29T17:21:46.069Z,3.20
2022-09-29T17:24:12.636Z,3.63
2022-09-29T17:27:01.299Z,3.25
2022-09-29T17:29:28.696Z,3.60
2022-09-29T17:31:55.241Z,3.28
2022-09-29T17:34:29.114Z,3.47
2022-09-29T17:36:59.671Z,3.13
2022-09-29T17:39:26.504Z,3.42
2022-09-29T17:41:53.128Z,3.45
2022-09-29T17:44:19.895Z,3.53
2022-09-29T17:46:47.000Z,3.88
2022-09-29T17:49:15.626Z,3.65
2022-09-29T17:51:42.304Z,3.95
2022-09-29T17:54:08.918Z,2.97
2022-09-29T17:56:41.162Z,3.80
2022-09-29T17:59:10.013Z,4.43
2022-09-29T18:01:38.264Z,3.95
2022-09-29T18:04:06.116Z,4.10
2022-09-29T18:06:37.039Z,4.15
2022-09-29T18:09:14.773Z,4.38
2022-09-29T18:11:41.506Z,4.40
2022-09-29T18:14:08.251Z,4.43
2022-09-29T18:16:35.003Z,4.20
2022-09-29T18:19:01.585Z,4.43
2022-09-29T18:21:29.375Z,4.20
2022-09-29T18:26:45.334Z,4.68
2022-09-29T18:29:16.909Z,4.53
2022-09-29T18:31:43.713Z,4.75
2022-09-29T18:34:18.089Z,4.43
2022-09-29T18:36:45.182Z,5.03
2022-09-29T18:39:15.225Z,5.47
2022-09-29T18:41:41.771Z,5.22
2022-09-29T18:44:17.449Z,5.95
2022-09-29T18:46:44.702Z,6.68
2022-09-29T18:49:13.049Z,5.45
2022-09-29T18:51:39.664Z,6.10
2022-09-29T18:54:07.477Z,6.32
2022-09-29T18:56:34.407Z,5.90
2022-09-29T18:59:01.923Z,5.70
2022-09-29T19:01:30.722Z,5.55
2022-09-29T19:03:57.368Z,5.55
2022-09-29T19:06:24.126Z,6.00
2022-09-29T19:08:52.235Z,6.00
2022-09-29T19:11:25.366Z,6.78
2022-09-29T19:13:55.054Z,6.13
2022-09-29T19:16:23.378Z,5.53
2022-09-29T19:18:50.196Z,5.35
2022-09-29T19:21:16.868Z,6.70
2022-09-29T19:23:43.605Z,5.68
2022-09-29T19:26:12.852Z,4.85
2022-09-29T19:28:39.882Z,5.75
2022-09-29T19:31:11.022Z,5.28
2022-09-29T19:33:40.538Z,5.20
2022-09-29T19:36:10.224Z,5.80
2022-09-29T19:38:37.768Z,5.75
2022-09-29T19:41:04.487Z,5.63
2022-09-29T19:43:32.303Z,5.63
2022-09-29T19:48:57.774Z,5.25
2022-09-29T19:51:47.218Z,6.07
2022-09-29T19:54:16.486Z,5.43
2022-09-29T19:56:50.533Z,5.57
2022-09-29T19:59:19.757Z,5.13
2022-09-29T20:01:49.434Z,5.40
2022-09-29T20:04:18.104Z,5.60
2022-09-29T20:06:45.655Z,5.38
2022-09-29T20:09:13.558Z,5.15
2022-09-29T20:11:40.866Z,5.20
2022-09-29T20:14:10.997Z,5.35
2022-09-29T20:16:41.252Z,5.07
2022-09-29T20:19:10.755Z,5.00
2022-09-29T20:21:40.317Z,5.57
2022-09-29T20:24:06.939Z,4.07
2022-09-29T20:26:33.495Z,4.47
2022-09-29T20:29:02.121Z,4.45
2022-09-29T20:31:31.252Z,4.10
2022-09-29T20:33:58.079Z,3.95
2022-09-29T20:36:25.592Z,4.05
2022-09-29T20:38:52.786Z,4.22
2022-09-29T20:41:20.182Z,3.85
2022-09-29T20:43:48.941Z,4.10
2022-09-29T20:46:16.068Z,3.47
2022-09-29T20:48:43.102Z,3.53
2022-09-29T20:51:17.961Z,4.25
2022-09-29T20:53:54.852Z,3.55
2022-09-29T20:56:22.716Z,3.90
2022-09-29T20:58:51.024Z,3.90
2022-09-29T21:01:23.769Z,3.70
2022-09-29T21:03:52.315Z,3.15
2022-09-29T21:06:23.879Z,3.50
2022-09-29T21:08:50.969Z,3.50
2022-09-29T21:11:18.435Z,3.30
2022-09-29T21:13:49.491Z,2.58
2022-09-29T21:16:16.387Z,2.72
2022-09-29T21:18:43.312Z,2.72
2022-09-29T21:21:12.561Z,2.95
2022-09-29T21:23:40.304Z,2.50
2022-09-29T21:26:08.529Z,2.30
2022-09-29T21:28:38.773Z,2.88
2022-09-29T21:31:08.013Z,2.78
2022-09-29T21:33:36.141Z,2.70
2022-09-29T21:36:05.579Z,2.38
2022-09-29T21:38:35.146Z,2.20
2022-09-29T21:41:24.111Z,2.20
2022-09-29T21:43:53.242Z,2.25
2022-09-29T21:46:22.321Z,2.00
2022-09-29T21:48:57.184Z,2.47
2022-09-29T21:51:27.028Z,2.47
2022-09-29T21:53:54.828Z,2.65
2022-09-29T21:56:24.255Z,2.55
2022-09-29T21:58:53.282Z,2.20
2022-09-29T22:01:20.835Z,1.80
2022-09-29T22:03:51.668Z,2.10
2022-09-29T22:09:11.977Z,1.98
2022-09-29T22:11:38.887Z,2.03
2022-09-29T22:14:06.205Z,1.88
2022-09-29T22:16:34.858Z,1.92
2022-09-29T22:19:23.385Z,1.85
2022-09-29T22:21:50.525Z,1.88
2022-09-29T22:24:17.096Z,2.10
2022-09-29T22:26:43.663Z,2.55
2022-09-29T22:29:10.264Z,1.98
2022-09-29T22:31:38.326Z,1.95
2022-09-29T22:34:04.991Z,2.13
2022-09-29T22:36:34.081Z,2.13
2022-09-29T22:39:01.944Z,2.55
2022-09-29T22:44:19.735Z,2.00
2022-09-29T22:46:46.572Z,2.22
2022-09-29T22:49:13.168Z,2.35
2022-09-29T22:51:39.695Z,2.10
2022-09-29T22:54:06.313Z,2.28
2022-09-29T22:56:32.837Z,2.13
2022-09-29T22:59:02.075Z,2.15
2022-09-29T23:01:29.430Z,2.17
2022-09-29T23:03:56.234Z,1.95
2022-09-29T23:06:22.838Z,2.42
2022-09-29T23:08:49.507Z,2.70
2022-09-29T23:11:18.288Z,2.50
2022-09-29T23:13:45.464Z,2.30
2022-09-29T23:16:14.158Z,2.15
2022-09-29T23:18:44.542Z,2.13
2022-09-29T23:21:14.549Z,2.45
2022-09-29T23:23:41.075Z,2.72
2022-09-29T23:26:07.665Z,1.98
2022-09-29T23:28:34.544Z,2.20
2022-09-29T23:31:06.623Z,2.03
2022-09-29T23:33:33.387Z,3.10
2022-09-29T23:36:14.039Z,2.10
2022-09-29T23:39:01.510Z,2.30
2022-09-29T23:41:29.754Z,2.72
2022-09-29T23:43:58.518Z,2.30
2022-09-29T23:46:29.012Z,2.30
2022-09-29T23:48:56.701Z,2.20
2022-09-29T23:51:23.278Z,2.25
2022-09-29T23:53:50.597Z,2.83
2022-09-29T23:56:17.178Z,2.28
2022-09-29T23:58:43.869Z,2.55
